sensor_id;sensor_type;location;lat;lon;timestamp;pressure;altitude;pressure_sealevel;temperature;humidity
45621;BME280;31345;51.522;10.702;2023-09-19T00:02:06;98267.31;;;17.45;100.00
45621;BME280;31345;51.522;10.702;2023-09-19T00:04:40;98271.41;;;17.39;100.00
45621;BME280;31345;51.522;10.702;2023-09-19T00:07:13;98276.84;;;17.38;100.00
45621;BME280;31345;51.522;10.702;2023-09-19T00:09:47;98284.78;;;17.29;100.00
45621;BME280;31345;51.522;10.702;2023-09-19T00:12:21;98283.59;;;17.07;100.00
45621;BME280;31345;51.522;10.702;2023-09-19T00:14:53;98273.19;;;17.05;100.00
45621;BME280;31345;51.522;10.702;2023-09-19T00:17:28;98275.97;;;16.95;100.00
45621;BME280;31345;51.522;10.702;2023-09-19T00:20:03;98283.06;;;17.03;100.00
45621;BME280;31345;51.522;10.702;2023-09-19T00:22:40;98281.75;;;16.99;100.00
45621;BME280;31345;51.522;10.702;2023-09-19T00:25:08;98280.59;;;16.93;100.00
45621;BME280;31345;51.522;10.702;2023-09-19T00:27:44;98276.91;;;16.78;100.00
45621;BME280;31345;51.522;10.702;2023-09-19T00:30:19;98275.94;;;16.79;100.00
45621;BME280;31345;51.522;10.702;2023-09-19T00:32:52;98281.06;;;16.80;100.00
45621;BME280;31345;51.522;10.702;2023-09-19T00:35:25;98280.38;;;16.70;100.00
45621;BME280;31345;51.522;10.702;2023-09-19T00:37:58;98279.06;;;16.74;100.00
45621;BME280;31345;51.522;10.702;2023-09-19T00:40:31;98285.03;;;16.76;100.00
45621;BME280;31345;51.522;10.702;2023-09-19T00:43:06;98287.16;;;16.81;100.00
45621;BME280;31345;51.522;10.702;2023-09-19T00:45:43;98284.84;;;16.78;100.00
45621;BME280;31345;51.522;10.702;2023-09-19T00:48:17;98288.63;;;16.75;100.00
45621;BME280;31345;51.522;10.702;2023-09-19T00:50:51;98284.69;;;16.79;100.00
45621;BME280;31345;51.522;10.702;2023-09-19T00:53:22;98288.84;;;16.82;100.00
45621;BME280;31345;51.522;10.702;2023-09-19T00:55:56;98278.78;;;16.85;100.00
45621;BME280;31345;51.522;10.702;2023-09-19T00:58:34;98283.56;;;16.90;100.00
45621;BME280;31345;51.522;10.702;2023-09-19T01:01:08;98273.34;;;16.95;100.00
45621;BME280;31345;51.522;10.702;2023-09-19T01:03:44;98283.06;;;16.95;100.00
45621;BME280;31345;51.522;10.702;2023-09-19T01:06:18;98272.00;;;16.91;100.00
45621;BME280;31345;51.522;10.702;2023-09-19T01:08:51;98276.16;;;16.94;100.00
45621;BME280;31345;51.522;10.702;2023-09-19T01:11:33;98282.25;;;16.94;100.00
45621;BME280;31345;51.522;10.702;2023-09-19T01:14:25;98293.78;;;16.85;100.00
45621;BME280;31345;51.522;10.702;2023-09-19T01:17:07;98292.81;;;16.86;100.00
45621;BME280;31345;51.522;10.702;2023-09-19T01:20:06;98294.13;;;16.90;100.00
45621;BME280;31345;51.522;10.702;2023-09-19T01:22:49;98300.72;;;16.86;100.00
45621;BME280;31345;51.522;10.702;2023-09-19T01:28:31;98316.22;;;16.89;100.00
45621;BME280;31345;51.522;10.702;2023-09-19T01:31:06;98316.75;;;16.93;100.00
45621;BME280;31345;51.522;10.702;2023-09-19T01:33:57;98319.06;;;16.96;100.00
45621;BME280;31345;51.522;10.702;2023-09-19T01:36:33;98331.59;;;17.02;100.00
45621;BME280;31345;51.522;10.702;2023-09-19T01:39:09;98316.25;;;17.06;100.00
45621;BME280;31345;51.522;10.702;2023-09-19T01:41:56;98321.91;;;17.11;100.00
45621;BME280;31345;51.522;10.702;2023-09-19T01:44:38;98321.75;;;17.13;100.00
45621;BME280;31345;51.522;10.702;2023-09-19T01:47:19;98322.53;;;17.13;100.00
45621;BME280;31345;51.522;10.702;2023-09-19T01:50:02;98329.31;;;17.16;100.00
45621;BME280;31345;51.522;10.702;2023-09-19T01:52:49;98328.34;;;17.17;100.00
45621;BME280;31345;51.522;10.702;2023-09-19T01:55:26;98332.78;;;17.16;100.00
45621;BME280;31345;51.522;10.702;2023-09-19T01:58:05;98330.16;;;17.16;100.00
45621;BME280;31345;51.522;10.702;2023-09-19T02:00:40;98336.44;;;17.15;100.00
45621;BME280;31345;51.522;10.702;2023-09-19T02:03:15;98342.72;;;17.14;100.00
45621;BME280;31345;51.522;10.702;2023-09-19T02:05:49;98332.31;;;17.13;100.00
45621;BME280;31345;51.522;10.702;2023-09-19T02:08:23;98333.78;;;17.07;100.00
45621;BME280;31345;51.522;10.702;2023-09-19T02:10:56;98343.81;;;17.03;100.00
45621;BME280;31345;51.522;10.702;2023-09-19T02:13:29;98344.31;;;16.98;100.00
45621;BME280;31345;51.522;10.702;2023-09-19T02:16:02;98342.00;;;16.95;100.00
45621;BME280;31345;51.522;10.702;2023-09-19T02:18:32;98343.94;;;16.93;100.00
45621;BME280;31345;51.522;10.702;2023-09-19T02:21:06;98347.59;;;16.92;100.00
45621;BME280;31345;51.522;10.702;2023-09-19T02:23:41;98345.59;;;16.86;100.00
45621;BME280;31345;51.522;10.702;2023-09-19T02:26:13;98344.91;;;16.84;100.00
45621;BME280;31345;51.522;10.702;2023-09-19T02:28:42;98350.81;;;16.78;100.00
45621;BME280;31345;51.522;10.702;2023-09-19T02:31:15;98347.69;;;16.74;100.00
45621;BME280;31345;51.522;10.702;2023-09-19T02:33:49;98349.59;;;16.55;100.00
45621;BME280;31345;51.522;10.702;2023-09-19T02:36:21;98361.13;;;16.54;100.00
45621;BME280;31345;51.522;10.702;2023-09-19T02:38:54;98354.53;;;16.50;100.00
45621;BME280;31345;51.522;10.702;2023-09-19T02:41:27;98360.06;;;16.39;100.00
45621;BME280;31345;51.522;10.702;2023-09-19T02:44:00;98363.94;;;16.26;100.00
45621;BME280;31345;51.522;10.702;2023-09-19T02:46:34;98373.78;;;16.16;100.00
45621;BME280;31345;51.522;10.702;2023-09-19T02:49:09;98375.72;;;16.14;100.00
45621;BME280;31345;51.522;10.702;2023-09-19T02:51:44;98378.72;;;16.19;100.00
45621;BME280;31345;51.522;10.702;2023-09-19T02:54:18;98374.94;;;16.21;100.00
45621;BME280;31345;51.522;10.702;2023-09-19T02:56:52;98382.34;;;16.18;100.00
45621;BME280;31345;51.522;10.702;2023-09-19T02:59:25;98384.47;;;16.14;100.00
45621;BME280;31345;51.522;10.702;2023-09-19T03:01:59;98379.69;;;16.18;100.00
45621;BME280;31345;51.522;10.702;2023-09-19T03:04:36;98390.56;;;16.15;100.00
45621;BME280;31345;51.522;10.702;2023-09-19T03:07:09;98391.75;;;16.20;100.00
45621;BME280;31345;51.522;10.702;2023-09-19T03:09:42;98396.50;;;16.17;100.00
45621;BME280;31345;51.522;10.702;2023-09-19T03:12:16;98408.19;;;16.14;100.00
45621;BME280;31345;51.522;10.702;2023-09-19T03:14:48;98410.16;;;16.12;100.00
45621;BME280;31345;51.522;10.702;2023-09-19T03:17:22;98418.22;;;16.11;100.00
45621;BME280;31345;51.522;10.702;2023-09-19T03:19:56;98416.88;;;16.06;100.00
45621;BME280;31345;51.522;10.702;2023-09-19T03:22:30;98416.16;;;15.96;100.00
45621;BME280;31345;51.522;10.702;2023-09-19T03:25:05;98423.38;;;15.94;100.00
45621;BME280;31345;51.522;10.702;2023-09-19T03:27:40;98424.50;;;15.91;100.00
45621;BME280;31345;51.522;10.702;2023-09-19T03:30:09;98432.63;;;15.80;100.00
45621;BME280;31345;51.522;10.702;2023-09-19T03:32:45;98435.72;;;15.75;100.00
45621;BME280;31345;51.522;10.702;2023-09-19T03:35:22;98436.41;;;15.77;100.00
45621;BME280;31345;51.522;10.702;2023-09-19T03:37:55;98436.69;;;15.74;100.00
45621;BME280;31345;51.522;10.702;2023-09-19T03:40:29;98443.47;;;15.77;100.00
45621;BME280;31345;51.522;10.702;2023-09-19T03:43:02;98434.91;;;15.75;100.00
45621;BME280;31345;51.522;10.702;2023-09-19T03:45:35;98442.66;;;15.76;100.00
45621;BME280;31345;51.522;10.702;2023-09-19T03:48:08;98443.09;;;15.72;100.00
45621;BME280;31345;51.522;10.702;2023-09-19T03:50:42;98446.81;;;15.79;100.00
45621;BME280;31345;51.522;10.702;2023-09-19T03:53:16;98435.84;;;15.74;100.00
45621;BME280;31345;51.522;10.702;2023-09-19T03:55:48;98423.22;;;15.77;100.00
45621;BME280;31345;51.522;10.702;2023-09-19T03:58:22;98439.63;;;15.71;100.00
45621;BME280;31345;51.522;10.702;2023-09-19T04:00:55;98438.69;;;15.72;100.00
45621;BME280;31345;51.522;10.702;2023-09-19T04:03:27;98444.16;;;15.61;100.00
45621;BME280;31345;51.522;10.702;2023-09-19T04:06:07;98449.13;;;15.64;100.00
45621;BME280;31345;51.522;10.702;2023-09-19T04:08:40;98449.44;;;15.61;100.00
45621;BME280;31345;51.522;10.702;2023-09-19T04:11:12;98457.03;;;15.64;100.00
45621;BME280;31345;51.522;10.702;2023-09-19T04:13:45;98461.63;;;15.62;100.00
45621;BME280;31345;51.522;10.702;2023-09-19T04:16:13;98458.00;;;15.63;100.00
45621;BME280;31345;51.522;10.702;2023-09-19T04:18:45;98466.75;;;15.63;100.00
45621;BME280;31345;51.522;10.702;2023-09-19T04:21:20;98463.88;;;15.56;100.00
45621;BME280;31345;51.522;10.702;2023-09-19T04:23:52;98466.28;;;15.50;100.00
45621;BME280;31345;51.522;10.702;2023-09-19T04:26:20;98470.72;;;15.49;100.00
45621;BME280;31345;51.522;10.702;2023-09-19T04:28:53;98472.28;;;15.42;100.00
45621;BME280;31345;51.522;10.702;2023-09-19T04:31:27;98466.50;;;15.38;100.00
45621;BME280;31345;51.522;10.702;2023-09-19T04:34:00;98466.41;;;15.30;100.00
45621;BME280;31345;51.522;10.702;2023-09-19T04:36:37;98468.84;;;15.32;100.00
45621;BME280;31345;51.522;10.702;2023-09-19T04:39:10;98469.19;;;15.28;100.00
45621;BME280;31345;51.522;10.702;2023-09-19T04:41:44;98481.66;;;15.26;100.00
45621;BME280;31345;51.522;10.702;2023-09-19T04:44:19;98487.75;;;15.27;100.00
45621;BME280;31345;51.522;10.702;2023-09-19T04:46:52;98481.94;;;15.23;97.89
45621;BME280;31345;51.522;10.702;2023-09-19T04:49:25;98492.09;;;15.18;99.06
45621;BME280;31345;51.522;10.702;2023-09-19T04:51:59;98500.25;;;15.15;99.19
45621;BME280;31345;51.522;10.702;2023-09-19T04:54:33;98496.38;;;15.19;99.35
45621;BME280;31345;51.522;10.702;2023-09-19T04:57:06;98497.63;;;15.15;98.79
45621;BME280;31345;51.522;10.702;2023-09-19T04:59:38;98502.75;;;15.16;98.52
45621;BME280;31345;51.522;10.702;2023-09-19T05:02:12;98503.31;;;15.20;99.05
45621;BME280;31345;51.522;10.702;2023-09-19T05:04:45;98500.69;;;15.20;97.05
45621;BME280;31345;51.522;10.702;2023-09-19T05:07:19;98495.41;;;15.20;98.95
45621;BME280;31345;51.522;10.702;2023-09-19T05:09:53;98489.16;;;15.21;98.29
45621;BME280;31345;51.522;10.702;2023-09-19T05:12:26;98489.84;;;15.23;97.16
45621;BME280;31345;51.522;10.702;2023-09-19T05:14:58;98491.66;;;15.23;97.86
45621;BME280;31345;51.522;10.702;2023-09-19T05:17:32;98497.44;;;15.26;97.96
45621;BME280;31345;51.522;10.702;2023-09-19T05:20:06;98492.75;;;15.30;96.94
45621;BME280;31345;51.522;10.702;2023-09-19T05:22:59;98493.97;;;15.36;96.42
45621;BME280;31345;51.522;10.702;2023-09-19T05:25:34;98499.59;;;15.41;96.97
45621;BME280;31345;51.522;10.702;2023-09-19T05:28:09;98500.81;;;15.47;95.81
45621;BME280;31345;51.522;10.702;2023-09-19T05:30:46;98498.72;;;15.50;95.68
45621;BME280;31345;51.522;10.702;2023-09-19T05:33:19;98501.19;;;15.52;96.01
45621;BME280;31345;51.522;10.702;2023-09-19T05:35:51;98509.81;;;15.54;95.18
45621;BME280;31345;51.522;10.702;2023-09-19T05:38:26;98510.75;;;15.53;94.46
45621;BME280;31345;51.522;10.702;2023-09-19T05:40:59;98502.72;;;15.54;92.93
45621;BME280;31345;51.522;10.702;2023-09-19T05:43:33;98507.84;;;15.56;94.95
45621;BME280;31345;51.522;10.702;2023-09-19T05:46:06;98500.91;;;15.55;95.15
45621;BME280;31345;51.522;10.702;2023-09-19T05:48:39;98495.50;;;15.56;93.45
45621;BME280;31345;51.522;10.702;2023-09-19T05:51:07;98496.44;;;15.55;94.65
45621;BME280;31345;51.522;10.702;2023-09-19T05:53:42;98507.00;;;15.55;95.46
45621;BME280;31345;51.522;10.702;2023-09-19T05:56:15;98502.41;;;15.58;94.75
45621;BME280;31345;51.522;10.702;2023-09-19T05:58:50;98504.63;;;15.62;94.93
45621;BME280;31345;51.522;10.702;2023-09-19T06:01:24;98497.53;;;15.63;95.52
45621;BME280;31345;51.522;10.702;2023-09-19T06:03:56;98504.47;;;15.64;95.59
45621;BME280;31345;51.522;10.702;2023-09-19T06:06:31;98514.31;;;15.62;94.66
45621;BME280;31345;51.522;10.702;2023-09-19T06:09:06;98519.44;;;15.63;95.11
45621;BME280;31345;51.522;10.702;2023-09-19T06:11:41;98524.44;;;15.66;96.34
45621;BME280;31345;51.522;10.702;2023-09-19T06:14:14;98523.28;;;15.69;95.48
45621;BME280;31345;51.522;10.702;2023-09-19T06:16:49;98539.09;;;15.69;95.42
45621;BME280;31345;51.522;10.702;2023-09-19T06:19:21;98538.41;;;15.67;95.28
45621;BME280;31345;51.522;10.702;2023-09-19T06:21:57;98544.38;;;15.69;95.98
45621;BME280;31345;51.522;10.702;2023-09-19T06:24:32;98536.47;;;15.69;94.95
45621;BME280;31345;51.522;10.702;2023-09-19T06:27:04;98546.41;;;15.75;95.64
45621;BME280;31345;51.522;10.702;2023-09-19T06:29:38;98543.03;;;15.83;96.12
45621;BME280;31345;51.522;10.702;2023-09-19T06:32:11;98541.75;;;15.87;94.60
45621;BME280;31345;51.522;10.702;2023-09-19T06:34:44;98544.41;;;15.87;94.19
45621;BME280;31345;51.522;10.702;2023-09-19T06:37:17;98550.34;;;15.89;93.85
45621;BME280;31345;51.522;10.702;2023-09-19T06:39:46;98554.50;;;15.92;94.27
45621;BME280;31345;51.522;10.702;2023-09-19T06:42:20;98562.94;;;15.95;94.90
45621;BME280;31345;51.522;10.702;2023-09-19T06:44:54;98558.50;;;15.96;93.37
45621;BME280;31345;51.522;10.702;2023-09-19T06:47:27;98562.78;;;15.97;92.33
45621;BME280;31345;51.522;10.702;2023-09-19T06:50:00;98567.38;;;15.95;94.33
45621;BME280;31345;51.522;10.702;2023-09-19T06:52:33;98581.53;;;15.94;95.12
45621;BME280;31345;51.522;10.702;2023-09-19T06:55:08;98577.25;;;15.93;93.54
45621;BME280;31345;51.522;10.702;2023-09-19T06:57:43;98586.16;;;15.92;92.95
45621;BME280;31345;51.522;10.702;2023-09-19T07:00:17;98594.88;;;15.92;94.13
45621;BME280;31345;51.522;10.702;2023-09-19T07:02:56;98600.69;;;15.96;93.89
45621;BME280;31345;51.522;10.702;2023-09-19T07:05:33;98599.00;;;15.95;92.26
45621;BME280;31345;51.522;10.702;2023-09-19T07:08:10;98607.63;;;15.97;93.36
45621;BME280;31345;51.522;10.702;2023-09-19T07:10:44;98615.81;;;15.94;91.48
45621;BME280;31345;51.522;10.702;2023-09-19T07:13:19;98611.53;;;15.93;92.62
45621;BME280;31345;51.522;10.702;2023-09-19T07:15:47;98618.16;;;15.97;91.13
45621;BME280;31345;51.522;10.702;2023-09-19T07:18:21;98614.25;;;16.01;91.69
45621;BME280;31345;51.522;10.702;2023-09-19T07:20:57;98619.53;;;16.01;91.39
45621;BME280;31345;51.522;10.702;2023-09-19T07:23:32;98621.88;;;16.04;92.16
45621;BME280;31345;51.522;10.702;2023-09-19T07:26:07;98618.91;;;16.07;90.58
45621;BME280;31345;51.522;10.702;2023-09-19T07:28:40;98627.22;;;16.13;90.90
45621;BME280;31345;51.522;10.702;2023-09-19T07:31:12;98628.97;;;16.22;90.54
45621;BME280;31345;51.522;10.702;2023-09-19T07:33:45;98622.28;;;16.28;88.10
45621;BME280;31345;51.522;10.702;2023-09-19T07:36:17;98631.94;;;16.37;90.25
45621;BME280;31345;51.522;10.702;2023-09-19T07:38:51;98627.88;;;16.43;88.73
45621;BME280;31345;51.522;10.702;2023-09-19T07:41:25;98630.06;;;16.48;88.46
45621;BME280;31345;51.522;10.702;2023-09-19T07:43:58;98629.63;;;16.52;89.04
45621;BME280;31345;51.522;10.702;2023-09-19T07:46:31;98631.66;;;16.58;88.66
45621;BME280;31345;51.522;10.702;2023-09-19T07:49:03;98619.22;;;16.51;83.49
45621;BME280;31345;51.522;10.702;2023-09-19T07:51:36;98629.56;;;16.44;83.08
45621;BME280;31345;51.522;10.702;2023-09-19T07:54:09;98637.47;;;16.44;82.83
45621;BME280;31345;51.522;10.702;2023-09-19T07:56:44;98648.03;;;16.44;83.80
45621;BME280;31345;51.522;10.702;2023-09-19T07:59:17;98641.91;;;16.43;81.24
45621;BME280;31345;51.522;10.702;2023-09-19T08:01:49;98644.25;;;16.46;82.03
45621;BME280;31345;51.522;10.702;2023-09-19T08:04:23;98652.81;;;16.49;76.75
45621;BME280;31345;51.522;10.702;2023-09-19T08:06:52;98652.03;;;16.48;77.56
45621;BME280;31345;51.522;10.702;2023-09-19T08:09:27;98653.75;;;16.57;78.21
45621;BME280;31345;51.522;10.702;2023-09-19T08:12:06;98660.53;;;16.60;78.82
45621;BME280;31345;51.522;10.702;2023-09-19T08:14:39;98652.75;;;16.58;76.92
45621;BME280;31345;51.522;10.702;2023-09-19T08:17:12;98660.31;;;16.71;78.31
45621;BME280;31345;51.522;10.702;2023-09-19T08:19:45;98660.81;;;16.75;79.25
45621;BME280;31345;51.522;10.702;2023-09-19T08:22:18;98658.44;;;16.82;77.73
45621;BME280;31345;51.522;10.702;2023-09-19T08:24:51;98667.38;;;16.89;76.29
45621;BME280;31345;51.522;10.702;2023-09-19T08:27:25;98663.22;;;16.87;77.60
45621;BME280;31345;51.522;10.702;2023-09-19T08:29:59;98669.56;;;16.94;75.13
45621;BME280;31345;51.522;10.702;2023-09-19T08:32:31;98672.25;;;17.02;73.94
45621;BME280;31345;51.522;10.702;2023-09-19T08:35:04;98670.72;;;17.18;74.35
45621;BME280;31345;51.522;10.702;2023-09-19T08:37:37;98661.38;;;17.23;74.59
45621;BME280;31345;51.522;10.702;2023-09-19T08:40:10;98670.69;;;17.36;74.07
45621;BME280;31345;51.522;10.702;2023-09-19T08:42:49;98673.47;;;17.34;73.34
45621;BME280;31345;51.522;10.702;2023-09-19T08:45:26;98667.78;;;17.21;69.61
45621;BME280;31345;51.522;10.702;2023-09-19T08:48:12;98685.44;;;17.20;74.29
45621;BME280;31345;51.522;10.702;2023-09-19T08:50:50;98677.06;;;17.25;74.73
45621;BME280;31345;51.522;10.702;2023-09-19T08:53:27;98684.31;;;17.23;74.51
45621;BME280;31345;51.522;10.702;2023-09-19T08:56:03;98690.28;;;17.25;71.00
45621;BME280;31345;51.522;10.702;2023-09-19T08:58:46;98687.94;;;17.22;72.76
45621;BME280;31345;51.522;10.702;2023-09-19T09:01:20;98690.22;;;17.17;72.92
45621;BME280;31345;51.522;10.702;2023-09-19T09:03:56;98684.88;;;17.08;70.13
45621;BME280;31345;51.522;10.702;2023-09-19T09:06:29;98682.69;;;17.04;71.47
45621;BME280;31345;51.522;10.702;2023-09-19T09:09:04;98684.19;;;17.06;71.19
45621;BME280;31345;51.522;10.702;2023-09-19T09:11:38;98683.72;;;17.11;71.38
45621;BME280;31345;51.522;10.702;2023-09-19T09:14:13;98688.22;;;17.19;70.76
45621;BME280;31345;51.522;10.702;2023-09-19T09:16:46;98683.84;;;17.28;69.99
45621;BME280;31345;51.522;10.702;2023-09-19T09:19:20;98675.78;;;17.29;68.79
45621;BME280;31345;51.522;10.702;2023-09-19T09:22:06;98676.75;;;17.46;70.14
45621;BME280;31345;51.522;10.702;2023-09-19T09:24:51;98679.88;;;17.50;67.62
45621;BME280;31345;51.522;10.702;2023-09-19T09:27:24;98680.03;;;17.48;68.09
45621;BME280;31345;51.522;10.702;2023-09-19T09:29:58;98679.72;;;17.52;65.27
45621;BME280;31345;51.522;10.702;2023-09-19T09:32:31;98679.09;;;17.58;68.10
45621;BME280;31345;51.522;10.702;2023-09-19T09:35:02;98686.88;;;17.59;70.50
45621;BME280;31345;51.522;10.702;2023-09-19T09:37:43;98680.47;;;17.62;69.48
45621;BME280;31345;51.522;10.702;2023-09-19T09:40:18;98691.44;;;17.75;70.00
45621;BME280;31345;51.522;10.702;2023-09-19T09:43:00;98679.56;;;17.80;66.85
45621;BME280;31345;51.522;10.702;2023-09-19T09:45:34;98671.81;;;17.86;69.10
45621;BME280;31345;51.522;10.702;2023-09-19T09:48:05;98674.34;;;18.05;69.54
45621;BME280;31345;51.522;10.702;2023-09-19T09:50:47;98678.53;;;18.16;66.73
45621;BME280;31345;51.522;10.702;2023-09-19T09:53:27;98678.91;;;18.29;67.56
45621;BME280;31345;51.522;10.702;2023-09-19T09:56:04;98681.25;;;18.41;68.18
45621;BME280;31345;51.522;10.702;2023-09-19T09:58:49;98678.13;;;18.53;67.47
45621;BME280;31345;51.522;10.702;2023-09-19T10:01:26;98677.66;;;18.58;64.90
45621;BME280;31345;51.522;10.702;2023-09-19T10:03:57;98677.34;;;18.61;66.23
45621;BME280;31345;51.522;10.702;2023-09-19T10:06:40;98675.03;;;18.75;67.86
45621;BME280;31345;51.522;10.702;2023-09-19T10:09:18;98668.09;;;18.99;69.00
45621;BME280;31345;51.522;10.702;2023-09-19T10:12:02;98665.09;;;19.19;66.00
45621;BME280;31345;51.522;10.702;2023-09-19T10:14:38;98675.81;;;19.34;66.69
45621;BME280;31345;51.522;10.702;2023-09-19T10:17:14;98674.69;;;19.28;64.59
45621;BME280;31345;51.522;10.702;2023-09-19T10:19:54;98672.84;;;19.45;65.52
45621;BME280;31345;51.522;10.702;2023-09-19T10:22:29;98696.03;;;19.51;65.81
45621;BME280;31345;51.522;10.702;2023-09-19T10:25:04;98682.47;;;19.21;63.32
45621;BME280;31345;51.522;10.702;2023-09-19T10:27:39;98683.50;;;19.03;65.73
45621;BME280;31345;51.522;10.702;2023-09-19T10:30:14;98681.69;;;19.12;61.77
45621;BME280;31345;51.522;10.702;2023-09-19T10:32:57;98682.81;;;19.18;61.85
45621;BME280;31345;51.522;10.702;2023-09-19T10:35:32;98685.47;;;19.26;65.59
45621;BME280;31345;51.522;10.702;2023-09-19T10:38:01;98679.97;;;19.28;63.67
45621;BME280;31345;51.522;10.702;2023-09-19T10:40:35;98680.47;;;19.40;65.31
45621;BME280;31345;51.522;10.702;2023-09-19T10:43:06;98683.59;;;19.43;60.21
45621;BME280;31345;51.522;10.702;2023-09-19T10:45:40;98681.97;;;19.34;62.31
45621;BME280;31345;51.522;10.702;2023-09-19T10:48:15;98687.44;;;19.33;61.86
45621;BME280;31345;51.522;10.702;2023-09-19T10:50:55;98681.97;;;19.26;63.11
45621;BME280;31345;51.522;10.702;2023-09-19T10:53:27;98685.78;;;19.32;62.14
45621;BME280;31345;51.522;10.702;2023-09-19T10:56:02;98684.44;;;19.61;64.64
45621;BME280;31345;51.522;10.702;2023-09-19T10:58:42;98674.28;;;19.56;59.16
45621;BME280;31345;51.522;10.702;2023-09-19T11:01:15;98685.25;;;19.61;60.15
45621;BME280;31345;51.522;10.702;2023-09-19T11:04:26;98679.78;;;19.54;58.70
45621;BME280;31345;51.522;10.702;2023-09-19T11:07:00;98683.09;;;19.65;60.08
45621;BME280;31345;51.522;10.702;2023-09-19T11:09:47;98680.78;;;19.62;58.17
45621;BME280;31345;51.522;10.702;2023-09-19T11:12:48;98687.38;;;19.58;59.90
45621;BME280;31345;51.522;10.702;2023-09-19T11:18:56;98673.66;;;19.54;59.22
45621;BME280;31345;51.522;10.702;2023-09-19T11:21:52;98677.81;;;19.48;59.90
45621;BME280;31345;51.522;10.702;2023-09-19T11:24:28;98670.69;;;19.49;59.69
45621;BME280;31345;51.522;10.702;2023-09-19T11:27:13;98670.00;;;19.47;60.14
45621;BME280;31345;51.522;10.702;2023-09-19T11:29:48;98668.84;;;19.49;59.08
45621;BME280;31345;51.522;10.702;2023-09-19T11:36:03;98663.72;;;19.64;60.23
45621;BME280;31345;51.522;10.702;2023-09-19T11:38:58;98672.59;;;19.88;59.52
45621;BME280;31345;51.522;10.702;2023-09-19T11:41:39;98676.44;;;19.69;57.72
45621;BME280;31345;51.522;10.702;2023-09-19T11:44:32;98676.78;;;19.58;56.66
45621;BME280;31345;51.522;10.702;2023-09-19T11:47:10;98674.66;;;19.61;57.67
45621;BME280;31345;51.522;10.702;2023-09-19T11:49:44;98675.31;;;19.63;58.99
45621;BME280;31345;51.522;10.702;2023-09-19T11:52:22;98680.25;;;19.58;56.20
45621;BME280;31345;51.522;10.702;2023-09-19T11:54:57;98677.63;;;19.50;57.24
45621;BME280;31345;51.522;10.702;2023-09-19T11:57:29;98674.03;;;19.34;59.29
45621;BME280;31345;51.522;10.702;2023-09-19T12:00:03;98682.13;;;19.41;59.27
45621;BME280;31345;51.522;10.702;2023-09-19T12:02:47;98675.00;;;19.41;56.92
45621;BME280;31345;51.522;10.702;2023-09-19T12:05:28;98684.78;;;19.41;56.61
45621;BME280;31345;51.522;10.702;2023-09-19T12:08:03;98685.91;;;19.47;57.97
45621;BME280;31345;51.522;10.702;2023-09-19T12:10:45;98694.38;;;19.34;57.53
45621;BME280;31345;51.522;10.702;2023-09-19T12:13:18;98689.09;;;19.25;55.16
45621;BME280;31345;51.522;10.702;2023-09-19T12:15:52;98681.50;;;19.22;54.92
45621;BME280;31345;51.522;10.702;2023-09-19T12:18:27;98688.94;;;19.19;56.35
45621;BME280;31345;51.522;10.702;2023-09-19T12:21:00;98687.28;;;19.17;55.90
45621;BME280;31345;51.522;10.702;2023-09-19T12:23:37;98687.94;;;19.20;56.73
45621;BME280;31345;51.522;10.702;2023-09-19T12:26:12;98690.28;;;19.14;57.33
45621;BME280;31345;51.522;10.702;2023-09-19T12:28:46;98695.09;;;19.19;59.13
45621;BME280;31345;51.522;10.702;2023-09-19T12:31:19;98699.38;;;19.03;56.49
45621;BME280;31345;51.522;10.702;2023-09-19T12:33:53;98690.59;;;18.95;59.14
45621;BME280;31345;51.522;10.702;2023-09-19T12:36:26;98678.03;;;19.05;59.41
45621;BME280;31345;51.522;10.702;2023-09-19T12:39:01;98687.13;;;19.11;57.66
45621;BME280;31345;51.522;10.702;2023-09-19T12:41:40;98678.34;;;19.27;56.68
45621;BME280;31345;51.522;10.702;2023-09-19T12:44:13;98679.34;;;19.26;57.08
45621;BME280;31345;51.522;10.702;2023-09-19T12:46:47;98674.38;;;19.14;57.42
45621;BME280;31345;51.522;10.702;2023-09-19T12:49:20;98663.09;;;19.04;58.28
45621;BME280;31345;51.522;10.702;2023-09-19T12:51:55;98662.78;;;19.07;58.11
45621;BME280;31345;51.522;10.702;2023-09-19T12:54:38;98671.72;;;19.14;58.52
45621;BME280;31345;51.522;10.702;2023-09-19T12:57:06;98660.09;;;19.49;58.10
45621;BME280;31345;51.522;10.702;2023-09-19T12:59:39;98668.56;;;19.27;57.59
45621;BME280;31345;51.522;10.702;2023-09-19T13:02:12;98661.06;;;19.48;55.11
45621;BME280;31345;51.522;10.702;2023-09-19T13:04:52;98660.28;;;19.39;58.80
45621;BME280;31345;51.522;10.702;2023-09-19T13:07:40;98668.38;;;19.37;59.39
45621;BME280;31345;51.522;10.702;2023-09-19T13:10:17;98669.34;;;19.53;58.76
45621;BME280;31345;51.522;10.702;2023-09-19T13:12:55;98671.63;;;19.81;58.55
45621;BME280;31345;51.522;10.702;2023-09-19T13:15:52;98671.81;;;19.71;57.97
45621;BME280;31345;51.522;10.702;2023-09-19T13:18:24;98652.97;;;19.41;57.89
45621;BME280;31345;51.522;10.702;2023-09-19T13:21:05;98659.56;;;19.45;58.87
45621;BME280;31345;51.522;10.702;2023-09-19T13:23:39;98667.06;;;19.33;59.40
45621;BME280;31345;51.522;10.702;2023-09-19T13:26:15;98655.97;;;19.29;60.08
45621;BME280;31345;51.522;10.702;2023-09-19T13:28:48;98655.91;;;19.46;58.49
45621;BME280;31345;51.522;10.702;2023-09-19T13:31:22;98662.38;;;19.60;57.93
45621;BME280;31345;51.522;10.702;2023-09-19T13:33:55;98654.44;;;19.68;59.67
45621;BME280;31345;51.522;10.702;2023-09-19T13:36:29;98646.81;;;19.97;58.23
45621;BME280;31345;51.522;10.702;2023-09-19T13:39:01;98656.66;;;19.88;57.62